Time;durP1;ratioP1;P1;durP2;ratioP2;P2;SDS_P1;SDS_P2;PMS_P1;PMS_P2;Temp;Humidity;BMP_temperature;BMP_pressure;BME280_temperature;BME280_humidity;BME280_pressure;Samples;Min_cycle;Max_cycle;Signal;HPM_P1;HPM_P2
2022/02/13 00:00:47;;;;;;;3.13;1.73;;;1.80;99.90;;;;;;5062544;28;20875;-47
2022/02/13 00:03:14;;;;;;;5.20;2.10;;;1.80;99.90;;;;;;5048035;28;20443;-47
2022/02/13 00:05:41;;;;;;;4.17;1.87;;;1.80;99.90;;;;;;5067907;28;20624;-46
2022/02/13 00:08:08;;;;;;;4.27;1.97;;;1.90;99.90;;;;;;5070229;28;20556;-47
2022/02/13 00:10:35;;;;;;;2.47;1.67;;;2.00;99.90;;;;;;5081165;28;20805;-46
2022/02/13 00:13:03;;;;;;;2.37;1.70;;;2.00;99.90;;;;;;5076669;28;20694;-50
2022/02/13 00:15:32;;;;;;;5.33;2.17;;;2.10;99.90;;;;;;5060484;28;20905;-47
2022/02/13 00:17:59;;;;;;;4.10;1.80;;;2.20;99.90;;;;;;5063409;28;20222;-49
2022/02/13 00:20:26;;;;;;;2.70;1.70;;;2.20;99.90;;;;;;5042949;28;20229;-49
2022/02/13 00:22:52;;;;;;;3.77;1.80;;;2.20;99.90;;;;;;5061881;28;20222;-48
2022/02/13 00:25:19;;;;;;;4.00;1.57;;;2.30;99.90;;;;;;5057114;28;20314;-48
2022/02/13 00:27:46;;;;;;;3.60;1.70;;;2.30;99.90;;;;;;5070787;28;20719;-45
2022/02/13 00:30:14;;;;;;;4.10;1.93;;;2.40;99.90;;;;;;5060558;28;20213;-47
2022/02/13 00:32:44;;;;;;;1.50;1.33;;;2.40;99.90;;;;;;5063003;28;20198;-45
2022/02/13 00:35:12;;;;;;;1.60;1.50;;;2.50;99.90;;;;;;5048821;28;20241;-46
2022/02/13 00:37:42;;;;;;;2.13;1.60;;;2.60;99.90;;;;;;5066836;28;20247;-46
2022/02/13 00:40:10;;;;;;;3.90;1.87;;;2.60;99.90;;;;;;5061201;28;20813;-49
2022/02/13 00:42:38;;;;;;;3.33;2.00;;;2.70;99.90;;;;;;5061766;28;20205;-45
2022/02/13 00:45:06;;;;;;;3.17;1.90;;;2.70;99.90;;;;;;5062235;28;20230;-46
2022/02/13 00:47:33;;;;;;;3.07;1.80;;;2.70;99.90;;;;;;5058328;28;20659;-45
2022/02/13 00:50:02;;;;;;;5.43;2.10;;;2.70;99.90;;;;;;5047775;28;21840;-46
2022/02/13 00:52:30;;;;;;;3.70;1.50;;;2.70;99.90;;;;;;5061248;28;20277;-44
2022/02/13 00:54:57;;;;;;;2.60;2.00;;;2.70;99.90;;;;;;5060926;28;20187;-46
2022/02/13 00:57:24;;;;;;;1.90;1.40;;;2.70;99.90;;;;;;5062185;28;20199;-48
2022/02/13 00:59:51;;;;;;;2.90;1.63;;;2.70;99.90;;;;;;5059999;28;20198;-44
2022/02/13 01:02:18;;;;;;;4.47;2.20;;;2.80;99.90;;;;;;5061612;28;20663;-43
2022/02/13 01:04:44;;;;;;;4.23;1.80;;;2.70;99.90;;;;;;5058089;28;20214;-46
2022/02/13 01:07:13;;;;;;;2.17;1.53;;;2.70;99.90;;;;;;5048204;28;20218;-48
2022/02/13 01:09:40;;;;;;;2.27;1.67;;;2.70;99.90;;;;;;5058849;28;20218;-47
2022/02/13 01:12:08;;;;;;;3.17;1.87;;;2.80;99.90;;;;;;5063147;28;20296;-46
2022/02/13 01:14:35;;;;;;;6.23;1.90;;;2.70;99.90;;;;;;5060130;28;20190;-46
2022/02/13 01:17:02;;;;;;;3.13;1.30;;;2.70;99.90;;;;;;5062105;28;20191;-49
2022/02/13 01:19:30;;;;;;;4.13;2.10;;;2.70;99.90;;;;;;5061078;28;20218;-48
2022/02/13 01:21:58;;;;;;;1.93;1.43;;;2.70;99.90;;;;;;5043900;28;20285;-48
2022/02/13 01:24:27;;;;;;;3.53;1.60;;;2.70;99.90;;;;;;5062051;28;20219;-46
2022/02/13 01:26:54;;;;;;;2.67;1.40;;;2.70;99.90;;;;;;5060079;28;20183;-50
2022/02/13 01:29:21;;;;;;;2.93;1.90;;;2.60;99.90;;;;;;5062962;28;20238;-45
2022/02/13 01:31:50;;;;;;;3.13;1.77;;;2.60;99.90;;;;;;5058592;28;20197;-46
2022/02/13 01:34:18;;;;;;;3.40;2.10;;;2.60;99.90;;;;;;5062739;28;20199;-48
2022/02/13 01:36:45;;;;;;;3.13;1.80;;;2.60;99.90;;;;;;5058012;28;20328;-44
2022/02/13 01:39:12;;;;;;;2.20;2.00;;;2.60;99.90;;;;;;5048550;28;20252;-49
2022/02/13 01:41:40;;;;;;;2.07;1.70;;;2.50;99.90;;;;;;5053182;28;20199;-47
2022/02/13 01:44:21;;;;;;;2.60;2.10;;;2.50;99.90;;;;;;5062625;28;20218;-48
2022/02/13 01:46:49;;;;;;;4.70;2.00;;;2.50;99.90;;;;;;5058996;28;20190;-47
2022/02/13 01:49:15;;;;;;;3.13;2.00;;;2.50;99.90;;;;;;5061169;28;20234;-48
2022/02/13 01:51:44;;;;;;;5.63;1.93;;;2.50;99.90;;;;;;5057035;28;20195;-49
2022/02/13 01:54:11;;;;;;;3.93;2.13;;;2.50;99.90;;;;;;5051726;28;20203;-49
2022/02/13 01:56:40;;;;;;;3.70;2.07;;;2.50;99.90;;;;;;5056794;28;20244;-45
2022/02/13 01:59:07;;;;;;;3.67;1.97;;;2.50;99.90;;;;;;5065199;28;20218;-45
2022/02/13 02:01:34;;;;;;;3.90;1.90;;;2.50;99.90;;;;;;5058436;28;20218;-50
2022/02/13 02:04:01;;;;;;;3.43;2.50;;;2.50;99.90;;;;;;5064613;28;20222;-45
2022/02/13 02:06:27;;;;;;;4.57;1.97;;;2.50;99.90;;;;;;5064188;28;20205;-47
2022/02/13 02:08:55;;;;;;;4.83;2.20;;;2.50;99.90;;;;;;5048390;28;20219;-48
2022/02/13 02:11:22;;;;;;;4.30;2.10;;;2.50;99.90;;;;;;5062760;28;20194;-50
2022/02/13 02:13:50;;;;;;;4.77;2.23;;;2.50;99.90;;;;;;5062086;28;20182;-46
2022/02/13 02:16:17;;;;;;;3.73;1.93;;;2.50;99.90;;;;;;5060197;28;20229;-46
2022/02/13 02:18:44;;;;;;;8.07;2.17;;;2.50;99.90;;;;;;5061963;28;20226;-45
2022/02/13 02:21:11;;;;;;;4.53;1.93;;;2.40;99.90;;;;;;5064572;28;20214;-46
2022/02/13 02:23:40;;;;;;;4.30;2.43;;;2.50;99.90;;;;;;5050086;28;20219;-47
2022/02/13 02:26:08;;;;;;;7.20;2.40;;;2.40;99.90;;;;;;5064199;28;20196;-45
2022/02/13 02:28:34;;;;;;;6.70;2.60;;;2.40;99.90;;;;;;5062963;28;20225;-48
2022/02/13 02:31:02;;;;;;;5.97;2.47;;;2.40;99.90;;;;;;5073093;28;20225;-47
2022/02/13 02:33:28;;;;;;;4.20;2.50;;;2.40;99.90;;;;;;5064071;28;20199;-47
2022/02/13 02:35:56;;;;;;;2.57;1.97;;;2.40;99.90;;;;;;5068055;28;20191;-45
2022/02/13 02:38:23;;;;;;;2.27;1.67;;;2.30;99.90;;;;;;5060318;28;20268;-45
2022/02/13 02:40:52;;;;;;;4.63;2.37;;;2.30;99.90;;;;;;5050252;28;20203;-48
2022/02/13 02:43:19;;;;;;;4.80;2.00;;;2.40;99.90;;;;;;5068809;28;20198;-45
2022/02/13 02:45:46;;;;;;;3.10;2.13;;;2.40;99.90;;;;;;5084776;28;20560;-46
2022/02/13 02:48:14;;;;;;;4.17;2.47;;;2.40;99.90;;;;;;5069087;28;20226;-49
2022/02/13 02:50:40;;;;;;;3.53;2.10;;;2.30;99.90;;;;;;5064839;28;20666;-45
2022/02/13 02:53:07;;;;;;;4.43;2.67;;;2.30;99.90;;;;;;5053296;28;20210;-46
2022/02/13 02:55:34;;;;;;;4.13;1.90;;;2.40;99.90;;;;;;5050282;28;20198;-47
2022/02/13 02:58:02;;;;;;;6.23;2.47;;;2.30;99.90;;;;;;5061451;28;20789;-46
2022/02/13 03:00:29;;;;;;;4.43;2.70;;;2.30;99.90;;;;;;5061890;28;20203;-45
2022/02/13 03:02:56;;;;;;;4.07;2.37;;;2.30;99.90;;;;;;5081178;28;20202;-45
2022/02/13 03:05:23;;;;;;;3.97;2.87;;;2.30;99.90;;;;;;5072430;28;20202;-45
2022/02/13 03:07:50;;;;;;;4.40;2.37;;;2.30;99.90;;;;;;5057968;28;20222;-47
2022/02/13 03:10:17;;;;;;;3.97;2.27;;;2.30;99.90;;;;;;5047776;28;20203;-45
2022/02/13 03:12:44;;;;;;;5.93;2.40;;;2.30;99.90;;;;;;5064652;28;20580;-45
2022/02/13 03:15:13;;;;;;;5.20;2.60;;;2.30;99.90;;;;;;5067813;28;20927;-46
2022/02/13 03:17:40;;;;;;;4.77;2.90;;;2.30;99.90;;;;;;5064254;28;20198;-45
2022/02/13 03:20:10;;;;;;;6.17;2.47;;;2.30;99.90;;;;;;5060693;28;20212;-45
2022/02/13 03:22:37;;;;;;;4.83;2.73;;;2.30;99.90;;;;;;5058016;28;20639;-47
2022/02/13 03:25:05;;;;;;;3.90;2.13;;;2.30;99.90;;;;;;5047160;28;20236;-49
2022/02/13 03:27:32;;;;;;;3.43;2.33;;;2.30;99.90;;;;;;5063266;28;20197;-46
2022/02/13 03:29:59;;;;;;;4.30;2.80;;;2.30;99.90;;;;;;5061571;28;20214;-48
2022/02/13 03:32:27;;;;;;;4.73;2.83;;;2.30;99.90;;;;;;5065683;28;20210;-45
2022/02/13 03:34:54;;;;;;;6.97;2.37;;;2.30;99.90;;;;;;5062326;28;20635;-46
2022/02/13 03:37:21;;;;;;;4.57;2.50;;;2.30;99.90;;;;;;5061757;28;20198;-47
2022/02/13 03:39:47;;;;;;;6.50;2.80;;;2.30;99.90;;;;;;5064752;28;20226;-47
2022/02/13 03:42:14;;;;;;;4.67;2.37;;;2.30;99.90;;;;;;5041144;28;20197;-48
2022/02/13 03:44:42;;;;;;;4.80;2.57;;;2.30;99.90;;;;;;5058113;28;20222;-45
2022/02/13 03:47:09;;;;;;;5.60;2.30;;;2.30;99.90;;;;;;5060065;28;20252;-45
2022/02/13 03:49:38;;;;;;;2.97;2.40;;;2.30;99.90;;;;;;5075675;28;20351;-45
2022/02/13 03:52:06;;;;;;;3.20;2.60;;;2.40;99.90;;;;;;5053957;28;20285;-45
2022/02/13 03:54:33;;;;;;;4.87;2.60;;;2.40;99.90;;;;;;5064297;28;20193;-45
2022/02/13 03:56:59;;;;;;;5.30;2.83;;;2.40;99.90;;;;;;5057384;28;20210;-47
2022/02/13 03:59:26;;;;;;;4.27;2.50;;;2.40;99.90;;;;;;5059668;28;20218;-44
2022/02/13 04:01:53;;;;;;;3.20;2.50;;;2.40;99.90;;;;;;5055104;28;20225;-48
2022/02/13 04:04:20;;;;;;;6.40;2.73;;;2.40;99.90;;;;;;5061169;28;20492;-46
2022/02/13 04:06:48;;;;;;;4.10;2.20;;;2.30;99.90;;;;;;5057524;28;20213;-48
2022/02/13 04:09:14;;;;;;;3.27;2.80;;;2.30;99.90;;;;;;5060488;28;20206;-43
2022/02/13 04:11:41;;;;;;;5.47;2.60;;;2.30;99.90;;;;;;5062812;28;20199;-44
2022/02/13 04:14:08;;;;;;;6.70;2.63;;;2.30;99.90;;;;;;5044469;28;20198;-46
2022/02/13 04:16:35;;;;;;;4.20;2.97;;;2.30;99.90;;;;;;5063318;28;20201;-43
2022/02/13 04:19:02;;;;;;;5.10;2.50;;;2.30;99.90;;;;;;5059831;28;20723;-47
2022/02/13 04:21:29;;;;;;;4.77;2.37;;;2.40;99.90;;;;;;5057327;28;20205;-44
2022/02/13 04:23:57;;;;;;;3.73;2.80;;;2.30;99.90;;;;;;5061256;28;20207;-48
2022/02/13 04:26:23;;;;;;;2.80;2.10;;;2.40;99.90;;;;;;5060875;28;20191;-46
2022/02/13 04:28:50;;;;;;;4.67;2.57;;;2.40;99.90;;;;;;5053546;28;20299;-45
2022/02/13 04:31:17;;;;;;;3.70;2.80;;;2.30;99.90;;;;;;5053810;28;20210;-45
2022/02/13 04:33:45;;;;;;;7.77;2.87;;;2.30;99.90;;;;;;5066805;28;20218;-44
2022/02/13 04:36:11;;;;;;;5.07;2.53;;;2.30;99.90;;;;;;5058441;28;20202;-44
2022/02/13 04:38:39;;;;;;;4.57;2.70;;;2.30;99.90;;;;;;5056078;28;20572;-44
2022/02/13 04:41:07;;;;;;;5.30;2.67;;;2.30;99.90;;;;;;5059085;28;20202;-43
2022/02/13 04:43:34;;;;;;;6.00;2.83;;;2.30;99.90;;;;;;5058854;28;20587;-44
2022/02/13 04:46:01;;;;;;;5.33;2.70;;;2.30;99.90;;;;;;5040310;28;20219;-46
2022/02/13 04:48:28;;;;;;;3.77;2.67;;;2.20;99.90;;;;;;5062705;28;20703;-44
2022/02/13 04:50:54;;;;;;;5.43;2.37;;;2.20;99.90;;;;;;5060464;28;20190;-43
2022/02/13 04:53:21;;;;;;;3.70;2.70;;;2.20;99.90;;;;;;5060782;28;20190;-45
2022/02/13 04:55:50;;;;;;;4.07;3.40;;;2.10;99.90;;;;;;5072727;28;20232;-45
2022/02/13 04:58:19;;;;;;;5.50;2.80;;;2.10;99.90;;;;;;5063633;28;20219;-46
2022/02/13 05:00:46;;;;;;;5.70;2.87;;;2.10;99.90;;;;;;5048226;28;20209;-44
2022/02/13 05:03:12;;;;;;;4.20;2.37;;;2.10;99.90;;;;;;5057878;28;20924;-46
2022/02/13 05:05:40;;;;;;;7.50;2.60;;;2.10;99.90;;;;;;5062822;28;20703;-44
2022/02/13 05:08:07;;;;;;;7.50;2.77;;;2.10;99.90;;;;;;5058719;28;20210;-43
2022/02/13 05:10:34;;;;;;;5.17;2.73;;;2.10;99.90;;;;;;5062854;28;20205;-45
2022/02/13 05:13:01;;;;;;;4.23;2.90;;;2.10;99.90;;;;;;5059932;28;20209;-45
2022/02/13 05:15:29;;;;;;;4.47;3.30;;;2.10;99.90;;;;;;5056713;28;20203;-45
2022/02/13 05:17:56;;;;;;;4.33;2.60;;;2.10;99.90;;;;;;5041998;28;20218;-46
2022/02/13 05:20:23;;;;;;;4.23;2.60;;;2.10;99.90;;;;;;5061247;28;20228;-45
2022/02/13 05:22:49;;;;;;;2.77;2.40;;;2.00;99.90;;;;;;5054893;28;20730;-47
2022/02/13 05:25:16;;;;;;;4.40;3.30;;;2.00;99.90;;;;;;5062435;28;20224;-45
2022/02/13 05:27:43;;;;;;;6.23;3.17;;;2.00;99.90;;;;;;5063792;28;20211;-43
2022/02/13 05:30:11;;;;;;;4.63;2.70;;;2.00;99.90;;;;;;5062641;28;20271;-44
2022/02/13 05:32:39;;;;;;;6.90;3.17;;;2.00;99.90;;;;;;5048208;28;20566;-46
2022/02/13 05:35:07;;;;;;;5.70;3.20;;;1.90;99.90;;;;;;5062341;28;20281;-46
2022/02/13 05:37:33;;;;;;;4.13;3.20;;;1.90;99.90;;;;;;5066063;28;20196;-43
2022/02/13 05:40:00;;;;;;;7.67;3.27;;;1.90;99.90;;;;;;5063484;28;20201;-49
2022/02/13 05:42:27;;;;;;;6.90;3.07;;;1.90;99.90;;;;;;5065459;28;20206;-44
2022/02/13 05:44:55;;;;;;;4.43;3.13;;;1.90;99.90;;;;;;5064407;28;20225;-45
2022/02/13 05:47:23;;;;;;;2.90;2.60;;;1.90;99.90;;;;;;5056920;28;20193;-45
2022/02/13 05:49:51;;;;;;;5.67;2.80;;;1.90;99.90;;;;;;5050991;28;20328;-46
2022/02/13 05:52:18;;;;;;;3.93;2.60;;;1.90;99.90;;;;;;5056052;28;20216;-44
2022/02/13 05:54:45;;;;;;;3.27;2.97;;;1.90;99.90;;;;;;5066273;28;20212;-46
2022/02/13 05:57:12;;;;;;;3.83;3.00;;;1.80;99.90;;;;;;5056998;28;20213;-44
2022/02/13 05:59:40;;;;;;;4.10;2.87;;;1.80;99.90;;;;;;5066222;28;20663;-45
2022/02/13 06:02:07;;;;;;;7.53;3.03;;;1.80;99.90;;;;;;5062423;28;20868;-48
2022/02/13 06:04:34;;;;;;;3.97;2.53;;;1.80;99.90;;;;;;5051117;28;20218;-47
2022/02/13 06:07:02;;;;;;;6.30;2.90;;;1.80;99.90;;;;;;5056944;28;20206;-45
2022/02/13 06:09:29;;;;;;;5.87;2.80;;;1.80;99.90;;;;;;5069178;28;20213;-47
2022/02/13 06:11:56;;;;;;;4.87;3.03;;;1.80;99.90;;;;;;5083425;28;20667;-47
2022/02/13 06:14:23;;;;;;;4.80;3.07;;;1.80;99.90;;;;;;5074538;28;20212;-45
2022/02/13 06:16:50;;;;;;;5.83;2.93;;;1.80;99.90;;;;;;5084339;28;20668;-48
2022/02/13 06:19:16;;;;;;;6.03;3.00;;;1.80;99.90;;;;;;5082407;28;20221;-47
2022/02/13 06:21:43;;;;;;;5.37;2.67;;;1.80;99.90;;;;;;5044945;28;20209;-49
2022/02/13 06:24:12;;;;;;;3.83;2.00;;;1.80;99.90;;;;;;5061272;28;20194;-49
2022/02/13 06:26:39;;;;;;;6.17;2.77;;;1.80;99.90;;;;;;5065274;28;20258;-44
2022/02/13 06:29:08;;;;;;;2.93;2.73;;;1.80;99.90;;;;;;5061495;28;20612;-49
2022/02/13 06:31:34;;;;;;;4.57;2.60;;;1.90;99.90;;;;;;5054598;28;20202;-50
2022/02/13 06:34:01;;;;;;;7.40;2.90;;;1.90;99.90;;;;;;5053825;28;20210;-46
2022/02/13 06:36:28;;;;;;;9.47;3.17;;;1.90;99.90;;;;;;5049211;28;20217;-46
2022/02/13 06:38:55;;;;;;;5.37;2.50;;;1.90;99.90;;;;;;5056011;28;20231;-47
2022/02/13 06:41:23;;;;;;;4.20;2.73;;;1.90;99.90;;;;;;5062808;28;20213;-44
2022/02/13 06:43:50;;;;;;;7.03;3.00;;;1.90;99.90;;;;;;5057977;28;20199;-45
2022/02/13 06:46:17;;;;;;;4.07;2.03;;;1.90;99.90;;;;;;5060662;28;20289;-45
2022/02/13 06:48:44;;;;;;;5.80;3.10;;;1.90;99.90;;;;;;5058166;28;20225;-44
2022/02/13 06:51:10;;;;;;;3.53;2.70;;;1.90;99.90;;;;;;5046879;28;21982;-45
2022/02/13 06:53:38;;;;;;;3.17;2.63;;;1.90;99.90;;;;;;5061412;28;20566;-49
2022/02/13 06:56:05;;;;;;;3.67;2.70;;;1.90;99.90;;;;;;5062737;28;20193;-45
2022/02/13 06:58:33;;;;;;;4.80;2.97;;;1.80;99.90;;;;;;5061802;28;20228;-48
2022/02/13 07:01:01;;;;;;;5.37;3.23;;;1.80;99.90;;;;;;5055995;28;20814;-48
2022/02/13 07:03:27;;;;;;;5.33;2.97;;;1.80;99.90;;;;;;5053812;28;20657;-47
2022/02/13 07:05:54;;;;;;;5.93;3.07;;;1.80;99.90;;;;;;5046425;28;20221;-46
2022/02/13 07:08:21;;;;;;;6.23;3.20;;;1.80;99.90;;;;;;5045118;28;20230;-48
2022/02/13 07:10:48;;;;;;;4.47;2.93;;;1.80;99.90;;;;;;5060038;28;20898;-46
2022/02/13 07:13:16;;;;;;;4.10;2.80;;;1.80;99.90;;;;;;5063894;28;20201;-47
2022/02/13 07:15:44;;;;;;;4.07;3.13;;;1.80;99.90;;;;;;5056842;28;20285;-46
2022/02/13 07:18:11;;;;;;;3.77;2.70;;;1.80;99.90;;;;;;5062553;28;20228;-46
2022/02/13 07:20:38;;;;;;;4.30;2.57;;;1.80;99.90;;;;;;5058861;28;20196;-44
2022/02/13 07:23:05;;;;;;;7.40;2.97;;;1.80;99.90;;;;;;5041934;28;20223;-46
2022/02/13 07:25:32;;;;;;;4.43;2.73;;;1.80;99.90;;;;;;5058868;28;20209;-47
2022/02/13 07:27:59;;;;;;;5.53;2.80;;;1.90;99.90;;;;;;5062614;28;20214;-49
2022/02/13 07:30:25;;;;;;;3.97;2.67;;;1.90;99.90;;;;;;5056041;28;20205;-46
2022/02/13 07:32:54;;;;;;;5.57;2.97;;;1.90;99.90;;;;;;5056970;28;20734;-47
2022/02/13 07:35:21;;;;;;;4.00;3.07;;;1.90;99.90;;;;;;5054151;28;20213;-45
2022/02/13 07:37:48;;;;;;;4.70;2.87;;;1.90;99.90;;;;;;5055889;28;20245;-46
2022/02/13 07:40:14;;;;;;;6.47;2.97;;;1.90;99.90;;;;;;5046858;28;20222;-49
2022/02/13 07:42:42;;;;;;;5.70;3.33;;;1.90;99.90;;;;;;5056723;28;20195;-48
2022/02/13 07:45:09;;;;;;;4.00;2.77;;;2.00;99.90;;;;;;5058726;28;20622;-45
2022/02/13 07:47:36;;;;;;;8.73;3.00;;;2.00;99.90;;;;;;5061329;28;20210;-50
2022/02/13 07:50:05;;;;;;;3.37;3.00;;;2.00;99.90;;;;;;5068177;28;20203;-46
2022/02/13 07:52:32;;;;;;;2.97;2.70;;;2.10;99.90;;;;;;5050636;28;20211;-44
2022/02/13 07:54:58;;;;;;;4.00;2.40;;;2.10;99.90;;;;;;5056861;28;20213;-50
2022/02/13 07:57:25;;;;;;;6.17;3.10;;;2.10;99.90;;;;;;5050532;28;20294;-48
2022/02/13 07:59:52;;;;;;;4.03;3.17;;;2.20;99.90;;;;;;5058859;28;20190;-46
2022/02/13 08:02:19;;;;;;;6.27;3.30;;;2.20;99.90;;;;;;5049295;28;20660;-47
2022/02/13 08:04:45;;;;;;;5.87;3.20;;;2.20;99.90;;;;;;5057455;28;20229;-49
2022/02/13 08:07:14;;;;;;;4.70;3.20;;;2.20;99.90;;;;;;5058576;28;20226;-47
2022/02/13 08:09:42;;;;;;;5.80;3.17;;;2.30;99.90;;;;;;5057745;28;20230;-48
2022/02/13 08:12:10;;;;;;;4.73;2.83;;;2.30;99.90;;;;;;5049648;28;20210;-45
2022/02/13 08:14:37;;;;;;;4.20;3.07;;;2.40;99.90;;;;;;5054332;28;20318;-46
2022/02/13 08:17:05;;;;;;;6.97;2.97;;;2.40;99.90;;;;;;5064620;28;20698;-47
2022/02/13 08:19:35;;;;;;;7.50;2.60;;;2.50;99.90;;;;;;5062695;28;20226;-44
2022/02/13 08:22:03;;;;;;;5.30;3.20;;;2.50;99.90;;;;;;5071781;28;20209;-45
2022/02/13 08:24:31;;;;;;;4.97;3.07;;;2.60;99.90;;;;;;5057134;28;20205;-45
2022/02/13 08:26:59;;;;;;;3.20;2.93;;;2.70;99.90;;;;;;5052264;28;20677;-44
2022/02/13 08:29:25;;;;;;;4.87;2.97;;;2.80;99.90;;;;;;5061194;28;20234;-45
2022/02/13 08:31:52;;;;;;;3.70;2.53;;;2.90;99.90;;;;;;5071352;28;20636;-47
2022/02/13 08:34:19;;;;;;;4.77;3.13;;;3.00;99.90;;;;;;5060895;28;20550;-46
2022/02/13 08:36:46;;;;;;;4.23;3.00;;;3.20;99.90;;;;;;5060810;28;20194;-46
2022/02/13 08:39:13;;;;;;;4.83;2.80;;;3.30;99.90;;;;;;5039344;28;20225;-47
2022/02/13 08:41:41;;;;;;;3.47;2.77;;;3.40;99.90;;;;;;5071309;28;20560;-45
2022/02/13 08:44:08;;;;;;;6.27;2.77;;;3.50;99.90;;;;;;5040651;28;20217;-47
2022/02/13 08:46:35;;;;;;;3.27;2.80;;;3.60;99.90;;;;;;5062121;28;20230;-46
2022/02/13 08:49:03;;;;;;;4.30;2.67;;;3.70;99.90;;;;;;5061746;28;20219;-45
2022/02/13 08:51:30;;;;;;;4.83;2.90;;;3.80;99.90;;;;;;5057535;28;20214;-47
2022/02/13 08:53:57;;;;;;;4.00;2.50;;;4.00;99.90;;;;;;5051029;28;20187;-47
2022/02/13 08:56:24;;;;;;;4.07;2.37;;;4.10;99.90;;;;;;5062276;28;20336;-45
2022/02/13 08:58:55;;;;;;;7.10;3.10;;;4.10;99.90;;;;;;5032349;28;20224;-45
2022/02/13 09:01:22;;;;;;;3.53;2.83;;;4.20;99.90;;;;;;5069638;28;20198;-44
2022/02/13 09:03:49;;;;;;;6.23;3.07;;;4.30;99.90;;;;;;5056363;28;20290;-45
2022/02/13 09:06:16;;;;;;;5.03;3.40;;;4.30;99.90;;;;;;5062085;28;20687;-44
2022/02/13 09:08:43;;;;;;;7.10;2.80;;;4.30;99.90;;;;;;5056667;28;20214;-46
2022/02/13 09:11:10;;;;;;;3.10;2.80;;;4.40;99.90;;;;;;5059606;28;20198;-47
2022/02/13 09:13:37;;;;;;;5.70;3.47;;;4.40;99.90;;;;;;5042225;28;20297;-48
2022/02/13 09:16:06;;;;;;;6.03;3.00;;;4.50;99.90;;;;;;5059569;28;20209;-44
2022/02/13 09:18:32;;;;;;;4.53;2.50;;;4.50;99.90;;;;;;5057911;28;20702;-48
2022/02/13 09:20:59;;;;;;;6.90;2.90;;;4.60;99.90;;;;;;5056084;28;20202;-45
2022/02/13 09:23:27;;;;;;;5.23;3.33;;;4.60;99.90;;;;;;5062043;28;20198;-47
2022/02/13 09:25:54;;;;;;;3.87;2.80;;;4.60;99.90;;;;;;5061488;28;20237;-44
2022/02/13 09:28:22;;;;;;;5.00;2.50;;;4.60;99.90;;;;;;5065492;28;20711;-44
2022/02/13 09:30:50;;;;;;;4.77;2.87;;;4.70;99.90;;;;;;5047116;28;20202;-44
2022/02/13 09:33:19;;;;;;;2.73;2.47;;;4.70;99.90;;;;;;5059377;28;20690;-45
2022/02/13 09:35:46;;;;;;;3.67;2.93;;;4.80;99.90;;;;;;5055534;28;20206;-47
2022/02/13 09:38:15;;;;;;;5.27;2.70;;;4.80;99.90;;;;;;5066168;28;20218;-44
2022/02/13 09:40:48;;;;;;;3.43;2.80;;;4.80;99.90;;;;;;5055288;28;20233;-47
2022/02/13 09:43:16;;;;;;;3.33;2.53;;;4.90;99.90;;;;;;5066309;28;20194;-44
2022/02/13 09:45:45;;;;;;;4.43;2.50;;;5.00;99.90;;;;;;5044539;28;20911;-44
2022/02/13 09:48:16;;;;;;;4.53;2.93;;;5.00;99.90;;;;;;5058945;28;20237;-46
2022/02/13 09:50:45;;;;;;;4.87;2.97;;;5.00;99.90;;;;;;5058983;28;20283;-44
2022/02/13 09:53:14;;;;;;;2.80;2.23;;;5.10;99.90;;;;;;5064909;28;20194;-46
2022/02/13 09:55:42;;;;;;;3.00;2.80;;;5.20;99.90;;;;;;5062972;28;20201;-46
2022/02/13 09:58:09;;;;;;;3.40;2.87;;;5.30;99.90;;;;;;5061349;28;20238;-45
2022/02/13 10:00:52;;;;;;;3.13;2.80;;;5.30;99.90;;;;;;5047541;28;20191;-43
2022/02/13 10:03:19;;;;;;;3.83;2.67;;;5.30;99.90;;;;;;5061050;28;20214;-47
2022/02/13 10:05:48;;;;;;;3.73;1.30;;;5.40;99.90;;;;;;5057159;28;20190;-44
2022/02/13 10:08:29;;;;;;;3.30;2.63;;;5.40;99.90;;;;;;5067191;28;20222;-45
2022/02/13 10:11:13;;;;;;;3.43;1.80;;;5.40;99.90;;;;;;5063940;28;20203;-48
2022/02/13 10:13:45;;;;;;;4.60;2.23;;;5.40;99.90;;;;;;5054797;28;20271;-46
2022/02/13 10:16:17;;;;;;;3.00;1.83;;;5.50;99.90;;;;;;5042508;28;21005;-46
2022/02/13 10:18:50;;;;;;;3.67;2.27;;;5.40;99.90;;;;;;5061381;28;20735;-48
2022/02/13 10:21:39;;;;;;;4.23;3.20;;;5.50;99.90;;;;;;5050772;28;20651;-48
2022/02/13 10:24:13;;;;;;;2.57;2.10;;;5.50;99.90;;;;;;5055705;28;20286;-46
2022/02/13 10:26:40;;;;;;;3.43;2.03;;;5.50;99.90;;;;;;5068203;28;20277;-49
2022/02/13 10:29:08;;;;;;;3.53;1.93;;;5.60;99.90;;;;;;5062292;28;20230;-43
2022/02/13 10:31:35;;;;;;;3.27;2.63;;;5.60;99.90;;;;;;5049744;28;20206;-44
2022/02/13 10:34:04;;;;;;;4.40;1.90;;;5.60;99.90;;;;;;5057521;28;20907;-46
2022/02/13 10:36:39;;;;;;;2.67;2.47;;;5.60;99.90;;;;;;5062931;28;20216;-45
2022/02/13 10:39:17;;;;;;;2.90;2.70;;;5.60;99.90;;;;;;5058643;28;20892;-45
2022/02/13 10:41:44;;;;;;;2.97;2.40;;;5.60;99.90;;;;;;5057433;28;20206;-50
2022/02/13 10:44:11;;;;;;;3.93;1.97;;;5.70;99.90;;;;;;5063015;28;20187;-48
2022/02/13 10:46:39;;;;;;;4.47;2.73;;;5.80;99.90;;;;;;5063464;28;20229;-50
2022/02/13 10:49:08;;;;;;;4.23;2.50;;;5.70;99.90;;;;;;5053949;28;20221;-47
2022/02/13 10:51:36;;;;;;;3.43;2.13;;;5.80;99.90;;;;;;5056026;28;20206;-47
2022/02/13 10:54:05;;;;;;;2.63;2.30;;;5.80;99.90;;;;;;5062119;28;20194;-46
2022/02/13 10:56:32;;;;;;;3.80;2.40;;;5.80;99.90;;;;;;5071043;28;20202;-45
2022/02/13 10:58:59;;;;;;;3.47;3.13;;;5.80;99.90;;;;;;5060651;28;20211;-47
2022/02/13 11:01:28;;;;;;;4.70;2.30;;;5.80;99.90;;;;;;5058700;28;20230;-45
2022/02/13 11:03:57;;;;;;;3.53;2.13;;;5.90;99.90;;;;;;5043193;28;20206;-45
2022/02/13 11:06:25;;;;;;;3.03;2.83;;;6.00;99.90;;;;;;5051786;28;20218;-46
2022/02/13 11:08:56;;;;;;;3.93;2.47;;;6.00;99.90;;;;;;5055937;28;20246;-46
2022/02/13 11:11:24;;;;;;;3.13;2.83;;;6.00;99.90;;;;;;5057416;28;20248;-45
2022/02/13 11:13:51;;;;;;;2.77;2.57;;;6.00;99.90;;;;;;5053814;28;20229;-44
2022/02/13 11:16:28;;;;;;;4.77;2.60;;;6.00;99.90;;;;;;5055317;28;20198;-44
2022/02/13 11:18:58;;;;;;;3.33;2.47;;;6.00;99.90;;;;;;5045043;28;21452;-44
2022/02/13 11:21:29;;;;;;;4.47;2.93;;;6.00;99.90;;;;;;5059980;28;20203;-44
2022/02/13 11:23:57;;;;;;;3.17;2.53;;;6.00;99.90;;;;;;5047068;28;20366;-47
2022/02/13 11:26:39;;;;;;;5.73;2.67;;;6.00;99.90;;;;;;5065868;28;20226;-45
2022/02/13 11:29:07;;;;;;;3.20;2.47;;;6.10;99.90;;;;;;5060728;28;20231;-48
2022/02/13 11:31:42;;;;;;;4.43;2.57;;;6.10;99.90;;;;;;5054220;28;20195;-47
2022/02/13 11:34:13;;;;;;;3.40;2.60;;;6.20;99.90;;;;;;5050269;28;20281;-51
2022/02/13 11:36:47;;;;;;;3.80;2.50;;;6.30;99.90;;;;;;5056560;28;20214;-49
2022/02/13 11:39:37;;;;;;;4.07;2.80;;;6.30;99.90;;;;;;5059039;28;20218;-46
2022/02/13 11:42:10;;;;;;;3.23;2.93;;;6.40;99.90;;;;;;5066032;28;20278;-44
2022/02/13 11:44:49;;;;;;;3.20;2.90;;;6.50;99.90;;;;;;5057295;28;20203;-49
2022/02/13 11:47:19;;;;;;;2.77;2.47;;;6.50;99.90;;;;;;5051744;28;20230;-45
2022/02/13 11:50:24;;;;;;;2.80;2.53;;;6.60;99.90;;;;;;5045640;28;20606;-48
2022/02/13 11:53:09;;;;;;;4.20;3.00;;;6.60;99.90;;;;;;5052095;28;21400;-45
2022/02/13 11:55:38;;;;;;;4.40;3.20;;;6.70;99.90;;;;;;5053270;28;20210;-48
2022/02/13 11:58:11;;;;;;;2.50;2.30;;;6.80;99.90;;;;;;5056457;28;20333;-46
2022/02/13 12:00:54;;;;;;;2.13;2.00;;;6.80;99.90;;;;;;5052102;28;20202;-48
2022/02/13 12:03:28;;;;;;;3.20;2.90;;;6.80;99.90;;;;;;5060956;28;20195;-45
2022/02/13 12:06:31;;;;;;;2.70;2.50;;;6.80;99.90;;;;;;5040829;28;22472;-48
2022/02/13 12:09:00;;;;;;;5.53;3.17;;;6.90;99.90;;;;;;5056504;28;20238;-46
2022/02/13 12:11:35;;;;;;;4.10;2.73;;;6.90;99.90;;;;;;5051322;28;20210;-48
2022/02/13 12:14:11;;;;;;;5.00;3.00;;;6.90;99.90;;;;;;5058861;28;20198;-46
2022/02/13 12:16:38;;;;;;;4.60;2.60;;;6.90;99.90;;;;;;5062630;28;20659;-51
2022/02/13 12:19:05;;;;;;;3.50;2.90;;;6.90;99.90;;;;;;5059002;28;20758;-45
2022/02/13 12:21:32;;;;;;;2.40;2.20;;;6.90;99.90;;;;;;5049449;28;20250;-52
2022/02/13 12:24:03;;;;;;;3.80;3.07;;;6.90;99.90;;;;;;5053660;28;20217;-48
2022/02/13 12:26:35;;;;;;;3.57;2.97;;;6.90;99.90;;;;;;5055309;28;20281;-48
2022/02/13 12:29:02;;;;;;;5.13;3.20;;;7.00;99.90;;;;;;5060097;28;20210;-48
2022/02/13 12:31:29;;;;;;;2.97;2.37;;;7.00;99.90;;;;;;5055343;28;20202;-46
2022/02/13 12:33:57;;;;;;;4.17;3.00;;;7.00;99.90;;;;;;5048572;28;20199;-49
2022/02/13 12:36:24;;;;;;;5.87;3.13;;;7.10;99.90;;;;;;5046227;28;20230;-49
2022/02/13 12:38:55;;;;;;;2.50;2.20;;;7.10;99.90;;;;;;5055535;28;20317;-46
2022/02/13 12:41:25;;;;;;;3.23;2.60;;;7.20;99.90;;;;;;5059119;28;20210;-48
2022/02/13 12:43:55;;;;;;;3.37;2.90;;;7.10;99.90;;;;;;5052796;28;20222;-46
2022/02/13 12:46:22;;;;;;;5.93;2.87;;;7.20;99.90;;;;;;5061257;28;20199;-48
2022/02/13 12:48:50;;;;;;;4.23;3.00;;;7.30;99.90;;;;;;5067552;28;20771;-49
2022/02/13 12:51:27;;;;;;;3.30;2.87;;;7.40;99.90;;;;;;5061199;28;20210;-46
2022/02/13 12:53:57;;;;;;;4.63;3.07;;;7.40;99.90;;;;;;5060998;28;20956;-45
2022/02/13 12:56:25;;;;;;;4.30;3.40;;;7.50;99.90;;;;;;5056916;28;20214;-48
2022/02/13 12:58:55;;;;;;;4.27;2.90;;;7.50;99.90;;;;;;5053810;28;20214;-45
2022/02/13 13:01:35;;;;;;;2.97;2.67;;;7.50;99.90;;;;;;5061953;28;20662;-47
2022/02/13 13:04:01;;;;;;;4.87;3.03;;;7.50;99.90;;;;;;5055485;28;20198;-45